createdAt,value
2018-05-06T00:01:40.705Z,76.70
2018-05-06T00:04:08.108Z,77.20
2018-05-06T00:06:35.529Z,78.00
2018-05-06T00:09:03.729Z,79.10
2018-05-06T00:11:31.196Z,79.00
2018-05-06T00:13:58.608Z,79.10
2018-05-06T00:16:26.049Z,79.10
2018-05-06T00:18:53.461Z,79.10
2018-05-06T00:21:20.877Z,78.90
2018-05-06T00:23:48.293Z,79.20
2018-05-06T00:26:15.812Z,79.00
2018-05-06T00:28:43.228Z,78.50
2018-05-06T00:31:10.643Z,78.00
2018-05-06T00:33:38.866Z,78.00
2018-05-06T00:36:07.003Z,77.90
2018-05-06T00:38:34.414Z,77.90
2018-05-06T00:41:01.868Z,77.80
2018-05-06T00:43:29.280Z,77.80
2018-05-06T00:45:56.697Z,77.20
2018-05-06T00:48:24.113Z,77.30
2018-05-06T00:50:51.521Z,77.20
2018-05-06T00:53:19.709Z,80.00
2018-05-06T00:55:47.880Z,81.40
2018-05-06T00:58:15.305Z,81.40
2018-05-06T01:00:42.712Z,80.80
2018-05-06T01:03:10.132Z,81.00
2018-05-06T01:05:37.548Z,82.00
2018-05-06T01:08:04.964Z,83.00
2018-05-06T01:10:32.372Z,82.70
2018-05-06T01:12:59.788Z,82.80
2018-05-06T01:15:27.965Z,83.10
2018-05-06T01:17:56.148Z,82.00
2018-05-06T01:20:24.328Z,81.40
2018-05-06T01:22:52.508Z,82.30
2018-05-06T01:25:19.972Z,81.70
2018-05-06T01:27:47.382Z,80.60
2018-05-06T01:30:14.796Z,80.60
2018-05-06T01:32:42.208Z,80.50
2018-05-06T01:35:10.393Z,80.80
2018-05-06T01:37:38.564Z,81.10
2018-05-06T01:40:05.985Z,81.00
2018-05-06T01:42:33.392Z,80.80
2018-05-06T01:45:00.815Z,80.60
2018-05-06T01:47:28.276Z,81.80
2018-05-06T01:49:55.692Z,82.70
2018-05-06T01:52:23.873Z,81.90
2018-05-06T01:54:51.283Z,82.00
2018-05-06T01:57:19.460Z,82.10
2018-05-06T01:59:47.677Z,81.40
2018-05-06T02:02:15.085Z,81.40
2018-05-06T02:04:42.609Z,81.40
2018-05-06T02:07:10.016Z,81.60
2018-05-06T02:09:37.432Z,83.10
2018-05-06T02:12:05.605Z,82.70
2018-05-06T02:14:33.025Z,82.70
2018-05-06T02:17:00.436Z,83.20
2018-05-06T02:19:27.944Z,82.60
2018-05-06T02:21:55.353Z,85.10
2018-05-06T02:24:22.880Z,85.30
2018-05-06T02:26:50.352Z,85.60
2018-05-06T02:29:17.765Z,85.40
2018-05-06T02:31:45.226Z,85.40
2018-05-06T02:34:12.612Z,86.00
2018-05-06T02:36:40.029Z,86.50
2018-05-06T02:39:07.437Z,86.20
2018-05-06T02:41:34.852Z,87.40
2018-05-06T02:44:03.029Z,87.90
2018-05-06T02:46:30.448Z,87.80
2018-05-06T02:48:57.896Z,88.30
2018-05-06T02:51:25.325Z,89.40
2018-05-06T02:53:53.512Z,89.20
2018-05-06T02:56:20.928Z,89.20
2018-05-06T02:58:48.388Z,88.90
2018-05-06T03:01:15.804Z,89.20
2018-05-06T03:03:43.217Z,89.10
2018-05-06T03:06:11.400Z,90.00
2018-05-06T03:08:39.577Z,89.70
2018-05-06T03:11:07.760Z,90.30
2018-05-06T03:13:35.165Z,90.30
2018-05-06T03:16:02.580Z,90.50
2018-05-06T03:18:29.992Z,90.30
2018-05-06T03:20:57.412Z,90.40
2018-05-06T03:23:24.816Z,90.50
2018-05-06T03:25:53.005Z,90.60
2018-05-06T03:28:21.177Z,90.80
2018-05-06T03:30:48.583Z,90.80
2018-05-06T03:33:16.000Z,91.10
2018-05-06T03:35:43.518Z,90.80
2018-05-06T03:38:10.937Z,90.90
2018-05-06T03:40:38.341Z,90.60
2018-05-06T03:43:06.521Z,90.00
2018-05-06T03:45:34.728Z,88.60
2018-05-06T03:48:02.144Z,88.50
2018-05-06T03:50:29.553Z,88.30
2018-05-06T03:52:57.739Z,88.30
2018-05-06T03:55:25.912Z,88.70
2018-05-06T03:58:05.985Z,89.90
2018-05-06T04:00:41.013Z,90.20
2018-05-06T04:03:08.429Z,90.20
2018-05-06T04:05:35.838Z,90.30
2018-05-06T04:08:03.252Z,90.20
2018-05-06T04:10:31.548Z,90.00
2018-05-06T04:12:59.737Z,90.70
2018-05-06T04:15:27.902Z,91.60
2018-05-06T04:17:56.089Z,92.20
2018-05-06T04:20:24.268Z,92.20
2018-05-06T04:22:51.763Z,92.20
2018-05-06T04:25:19.237Z,92.60
2018-05-06T04:27:46.653Z,92.60
2018-05-06T04:30:14.064Z,92.50
2018-05-06T04:32:42.252Z,91.60
2018-05-06T04:35:10.457Z,90.80
2018-05-06T04:37:37.864Z,90.80
2018-05-06T04:40:05.280Z,90.70
2018-05-06T04:42:33.461Z,91.30
2018-05-06T04:45:01.642Z,91.50
2018-05-06T04:47:29.812Z,91.20
2018-05-06T04:49:57.339Z,91.10
2018-05-06T04:52:24.788Z,91.20
2018-05-06T04:54:52.205Z,91.30
2018-05-06T04:57:19.612Z,92.30
2018-05-06T04:59:47.806Z,92.30
2018-05-06T05:02:15.977Z,92.40
2018-05-06T05:04:44.157Z,92.60
2018-05-06T05:07:11.566Z,92.30
2018-05-06T05:09:39.124Z,92.30
2018-05-06T05:12:06.438Z,92.60
2018-05-06T05:14:33.857Z,92.80
2018-05-06T05:17:02.033Z,92.00
2018-05-06T05:19:30.214Z,91.20
2018-05-06T05:21:57.621Z,91.20
2018-05-06T05:24:25.039Z,90.80
2018-05-06T05:26:52.453Z,90.80
2018-05-06T05:29:19.881Z,90.90
2018-05-06T05:31:47.387Z,91.60
2018-05-06T05:34:14.796Z,91.00
2018-05-06T05:36:42.212Z,91.20
2018-05-06T05:39:10.384Z,89.80
2018-05-06T05:41:37.801Z,89.70
2018-05-06T05:44:05.212Z,90.00
2018-05-06T05:46:32.730Z,90.10
2018-05-06T05:49:00.144Z,90.10
2018-05-06T05:51:27.565Z,89.50
2018-05-06T05:53:54.972Z,90.00
2018-05-06T05:56:22.388Z,88.90
2018-05-06T05:58:50.585Z,88.00
2018-05-06T06:01:18.748Z,86.20
2018-05-06T06:03:46.915Z,85.10
2018-05-06T06:06:14.334Z,85.10
2018-05-06T06:08:41.801Z,85.00
2018-05-06T06:11:09.208Z,85.10
2018-05-06T06:13:36.625Z,83.80
2018-05-06T06:16:04.820Z,82.70
2018-05-06T06:18:32.292Z,82.70
2018-05-06T06:20:59.761Z,80.00
2018-05-06T06:23:27.228Z,80.10
2018-05-06T06:25:54.696Z,76.30
2018-05-06T06:28:22.120Z,70.40
2018-05-06T06:30:49.537Z,66.70
2018-05-06T06:33:17.018Z,62.10
2018-05-06T06:35:44.480Z,59.30
2018-05-06T06:38:11.949Z,55.30
2018-05-06T06:40:39.356Z,52.90
2018-05-06T06:43:06.781Z,50.00
2018-05-06T06:45:34.196Z,46.90
2018-05-06T06:48:01.783Z,46.70
2018-05-06T06:50:29.921Z,42.40
2018-05-06T06:52:57.362Z,42.30
2018-05-06T06:55:25.621Z,39.50
2018-05-06T06:57:52.961Z,39.40
2018-05-06T07:00:20.425Z,38.20
2018-05-06T07:02:47.853Z,36.00
2018-05-06T07:05:15.271Z,36.90
2018-05-06T07:07:42.684Z,36.40
2018-05-06T07:10:10.121Z,35.60
2018-05-06T07:12:37.544Z,34.50
2018-05-06T07:15:05.057Z,33.90
2018-05-06T07:17:32.525Z,33.80
2018-05-06T07:19:59.945Z,32.00
2018-05-06T07:22:27.360Z,34.10
2018-05-06T07:24:54.793Z,35.10
2018-05-06T07:27:22.209Z,35.10
2018-05-06T07:29:49.715Z,35.50
2018-05-06T07:32:17.149Z,35.10
2018-05-06T07:34:44.612Z,36.80
2018-05-06T07:37:12.029Z,36.20
2018-05-06T07:39:39.456Z,37.40
2018-05-06T07:42:06.864Z,37.40
2018-05-06T07:44:34.280Z,41.40
2018-05-06T07:47:02.492Z,41.70
2018-05-06T07:49:29.910Z,41.70
2018-05-06T07:51:57.321Z,42.70
2018-05-06T07:54:24.755Z,43.80
2018-05-06T07:56:52.146Z,43.90
2018-05-06T07:59:19.623Z,44.60
2018-05-06T08:01:47.028Z,45.40
2018-05-06T08:04:14.469Z,44.30
2018-05-06T08:06:41.876Z,44.70
2018-05-06T08:09:09.293Z,45.10
2018-05-06T08:11:37.469Z,44.00
2018-05-06T08:14:05.640Z,45.00
2018-05-06T08:16:33.160Z,45.00
2018-05-06T08:19:00.561Z,45.70
2018-05-06T08:21:27.976Z,45.40
2018-05-06T08:23:55.412Z,45.90
2018-05-06T08:26:22.828Z,45.10
2018-05-06T08:28:50.240Z,45.30
2018-05-06T08:31:17.652Z,44.30
2018-05-06T08:33:45.065Z,44.10
2018-05-06T08:36:12.479Z,45.90
2018-05-06T08:38:40.657Z,44.30
2018-05-06T08:41:08.870Z,45.30
2018-05-06T08:43:36.281Z,45.30
2018-05-06T08:46:03.696Z,44.80
2018-05-06T08:48:31.869Z,42.70
2018-05-06T08:51:00.061Z,45.50
2018-05-06T08:53:28.228Z,46.70
2018-05-06T08:55:55.639Z,46.60
2018-05-06T08:58:23.061Z,47.10
2018-05-06T09:00:50.472Z,47.20
2018-05-06T09:03:18.660Z,45.00
2018-05-06T09:05:46.832Z,46.20
2018-05-06T09:08:14.336Z,46.20
2018-05-06T09:10:41.809Z,46.90
2018-05-06T09:13:09.285Z,46.20
2018-05-06T09:15:36.693Z,45.20
2018-05-06T09:18:04.116Z,44.30
2018-05-06T09:20:31.524Z,43.90
2018-05-06T09:22:58.956Z,44.10
2018-05-06T09:25:26.439Z,43.20
2018-05-06T09:27:53.845Z,42.60
2018-05-06T09:30:21.249Z,44.30
2018-05-06T09:32:48.669Z,43.70
2018-05-06T09:35:16.096Z,43.50
2018-05-06T09:37:43.627Z,44.00
2018-05-06T09:40:10.997Z,43.20
2018-05-06T09:42:38.510Z,43.40
2018-05-06T09:45:05.977Z,43.30
2018-05-06T09:47:33.452Z,42.10
2018-05-06T09:50:00.801Z,43.20
2018-05-06T09:52:29.032Z,41.60
2018-05-06T09:54:56.582Z,41.60
2018-05-06T09:57:24.044Z,42.60
2018-05-06T09:59:51.514Z,43.30
2018-05-06T10:02:18.929Z,41.50
2018-05-06T10:04:46.457Z,41.60
2018-05-06T10:07:13.864Z,42.60
2018-05-06T10:09:41.281Z,39.60
2018-05-06T10:12:09.455Z,41.50
2018-05-06T10:14:37.640Z,40.80
2018-05-06T10:17:05.052Z,40.70
2018-05-06T10:19:32.469Z,41.90
2018-05-06T10:21:59.982Z,40.80
2018-05-06T10:24:27.453Z,40.00
2018-05-06T10:26:54.925Z,38.60
2018-05-06T10:29:22.328Z,40.20
2018-05-06T10:31:49.744Z,40.60
2018-05-06T10:34:17.230Z,39.00
2018-05-06T10:36:44.696Z,39.80
2018-05-06T10:39:12.109Z,39.00
2018-05-06T10:41:39.542Z,35.70
2018-05-06T10:44:07.082Z,39.60
2018-05-06T10:46:34.477Z,39.40
2018-05-06T10:49:01.923Z,38.30
2018-05-06T10:51:29.304Z,38.70
2018-05-06T10:53:56.787Z,39.00
2018-05-06T10:56:24.207Z,36.60
2018-05-06T10:58:51.716Z,38.90
2018-05-06T11:01:19.194Z,38.70
2018-05-06T11:03:46.608Z,37.90
2018-05-06T11:06:14.145Z,37.80
2018-05-06T11:08:41.561Z,37.70
2018-05-06T11:11:09.070Z,36.80
2018-05-06T11:13:36.492Z,36.40
2018-05-06T11:16:04.019Z,36.70
2018-05-06T11:18:31.497Z,36.90
2018-05-06T11:20:58.958Z,36.40
2018-05-06T11:23:26.396Z,37.70
2018-05-06T11:25:54.581Z,38.20
2018-05-06T11:28:22.805Z,37.00
2018-05-06T11:30:50.226Z,37.00
2018-05-06T11:33:17.748Z,37.00
2018-05-06T11:35:45.218Z,36.60
2018-05-06T11:38:12.639Z,37.50
2018-05-06T11:40:40.058Z,36.90
2018-05-06T11:43:07.485Z,36.70
2018-05-06T11:45:35.093Z,35.40
2018-05-06T11:48:02.592Z,37.40
2018-05-06T11:50:29.982Z,36.10
2018-05-06T11:52:57.399Z,36.60
2018-05-06T11:55:24.816Z,36.30
2018-05-06T11:57:52.246Z,35.70
2018-05-06T12:00:19.713Z,36.50
2018-05-06T12:02:47.125Z,34.00
2018-05-06T12:05:14.556Z,34.60
2018-05-06T12:07:42.017Z,35.80
2018-05-06T12:10:09.441Z,35.00
2018-05-06T12:12:36.857Z,34.90
2018-05-06T12:15:04.272Z,35.00
2018-05-06T12:17:31.688Z,34.50
2018-05-06T12:19:59.112Z,35.10
2018-05-06T12:22:26.528Z,34.40
2018-05-06T12:24:53.953Z,33.00
2018-05-06T12:27:21.478Z,32.00
2018-05-06T12:29:48.892Z,33.80
2018-05-06T12:32:16.416Z,34.10
2018-05-06T12:34:43.885Z,33.30
2018-05-06T12:37:11.304Z,33.90
2018-05-06T12:39:38.720Z,34.30
2018-05-06T12:42:06.138Z,34.40
2018-05-06T12:44:33.573Z,32.10
2018-05-06T12:47:00.994Z,35.20
2018-05-06T12:49:28.559Z,35.30
2018-05-06T12:51:55.935Z,34.10
2018-05-06T12:54:23.344Z,34.60
2018-05-06T12:56:50.818Z,32.50
2018-05-06T12:59:18.230Z,34.80
2018-05-06T13:01:45.757Z,35.30
2018-05-06T13:04:13.334Z,35.00
2018-05-06T13:06:40.792Z,35.30
2018-05-06T13:09:08.217Z,36.10
2018-05-06T13:11:35.640Z,34.30
2018-05-06T13:14:03.102Z,34.40
2018-05-06T13:16:30.528Z,34.90
2018-05-06T13:18:57.953Z,32.60
2018-05-06T13:21:25.409Z,35.00
2018-05-06T13:23:52.828Z,33.70
2018-05-06T13:26:20.258Z,34.10
2018-05-06T13:28:47.731Z,35.10
2018-05-06T13:31:15.139Z,33.20
2018-05-06T13:33:42.540Z,36.20
2018-05-06T13:36:10.733Z,36.60
2018-05-06T13:38:38.152Z,36.60
2018-05-06T13:41:05.585Z,36.30
2018-05-06T13:43:33.004Z,35.00
2018-05-06T13:46:00.420Z,35.40
2018-05-06T13:48:27.848Z,35.30
2018-05-06T13:50:55.364Z,35.40
2018-05-06T13:53:22.785Z,34.60
2018-05-06T13:55:50.309Z,35.30
2018-05-06T13:58:17.750Z,34.70
2018-05-06T14:00:45.960Z,34.80
2018-05-06T14:03:13.445Z,34.80
2018-05-06T14:05:40.905Z,34.20
2018-05-06T14:08:08.379Z,35.60
2018-05-06T14:10:35.785Z,34.90
2018-05-06T14:13:03.209Z,35.60
2018-05-06T14:15:30.620Z,35.10
2018-05-06T14:17:58.149Z,35.20
2018-05-06T14:20:25.636Z,36.90
2018-05-06T14:22:53.033Z,34.90
2018-05-06T14:25:20.451Z,37.40
2018-05-06T14:27:47.868Z,36.40
2018-05-06T14:30:15.281Z,36.70
2018-05-06T14:32:43.482Z,37.90
2018-05-06T14:35:10.952Z,37.80
2018-05-06T14:37:38.373Z,38.00
2018-05-06T14:40:05.789Z,36.60
2018-05-06T14:42:33.286Z,37.00
2018-05-06T14:45:00.632Z,36.50
2018-05-06T14:50:28.856Z,36.90
2018-05-06T14:52:56.277Z,38.50
2018-05-06T14:55:23.693Z,39.10
2018-05-06T14:57:51.113Z,38.60
2018-05-06T15:00:18.639Z,38.20
2018-05-06T15:02:46.052Z,38.00
2018-05-06T15:05:13.478Z,38.50
2018-05-06T15:07:40.888Z,39.10
2018-05-06T15:10:08.313Z,41.00
2018-05-06T15:12:35.724Z,40.20
2018-05-06T15:15:03.147Z,40.60
2018-05-06T15:17:30.621Z,39.70
2018-05-06T15:19:58.084Z,39.40
2018-05-06T15:22:25.559Z,40.20
2018-05-06T15:24:52.973Z,39.90
2018-05-06T15:27:20.388Z,41.70
2018-05-06T15:29:47.813Z,40.60
2018-05-06T15:32:15.239Z,39.50
2018-05-06T15:34:42.652Z,40.30
2018-05-06T15:37:10.178Z,41.20
2018-05-06T15:39:37.648Z,40.60
2018-05-06T15:42:05.108Z,40.20
2018-05-06T15:44:32.582Z,40.70
2018-05-06T15:46:59.998Z,41.10
2018-05-06T15:49:27.521Z,42.10
2018-05-06T15:51:55.105Z,41.50
2018-05-06T15:54:23.285Z,40.30
2018-05-06T15:56:50.701Z,40.20
2018-05-06T15:59:18.115Z,41.60
2018-05-06T16:04:48.002Z,43.70
2018-05-06T16:07:15.456Z,43.60
2018-05-06T16:09:42.876Z,43.00
2018-05-06T16:12:10.283Z,43.10
2018-05-06T16:14:37.695Z,42.20
2018-05-06T16:17:05.113Z,42.20
2018-05-06T16:19:33.288Z,43.10
2018-05-06T16:22:01.474Z,41.40
2018-05-06T16:24:28.880Z,41.30
2018-05-06T16:26:56.297Z,41.10
2018-05-06T16:29:23.713Z,43.00
2018-05-06T16:31:51.133Z,42.20
2018-05-06T16:34:18.540Z,42.00
2018-05-06T16:36:46.017Z,42.70
2018-05-06T16:39:13.434Z,43.00
2018-05-06T16:41:40.849Z,45.00
2018-05-06T16:44:08.328Z,45.60
2018-05-06T16:46:35.741Z,43.40
2018-05-06T16:49:03.148Z,41.70
2018-05-06T16:51:31.332Z,41.70
2018-05-06T16:53:59.509Z,42.50
2018-05-06T16:56:27.704Z,41.00
2018-05-06T16:58:55.877Z,42.10
2018-05-06T17:03:57.148Z,44.00
2018-05-06T17:06:24.578Z,44.00
2018-05-06T17:08:51.989Z,43.60
2018-05-06T17:11:19.407Z,42.00
2018-05-06T17:13:46.813Z,42.30
2018-05-06T17:16:14.230Z,42.80
2018-05-06T17:18:42.412Z,42.70
2018-05-06T17:21:10.605Z,43.50
2018-05-06T17:23:38.790Z,42.60
2018-05-06T17:26:06.200Z,42.50
2018-05-06T17:28:33.603Z,42.30
2018-05-06T17:31:01.116Z,41.60
2018-05-06T17:33:28.585Z,43.80
2018-05-06T17:35:55.993Z,46.20
2018-05-06T17:38:23.408Z,45.30
2018-05-06T17:40:51.608Z,45.50
2018-05-06T17:43:19.025Z,45.50
2018-05-06T17:45:46.445Z,44.20
2018-05-06T17:48:13.871Z,44.20
2018-05-06T17:50:41.281Z,45.10
2018-05-06T17:53:08.755Z,44.60
2018-05-06T17:55:36.233Z,45.40
2018-05-06T17:58:03.664Z,47.00
2018-05-06T18:00:31.168Z,48.00
2018-05-06T18:02:58.589Z,46.80
2018-05-06T18:05:26.001Z,46.50
2018-05-06T18:07:53.479Z,46.90
2018-05-06T18:10:20.884Z,47.40
2018-05-06T18:12:48.301Z,47.40
2018-05-06T18:15:16.496Z,49.50
2018-05-06T18:17:43.912Z,49.50
2018-05-06T18:20:11.324Z,49.40
2018-05-06T18:22:39.587Z,51.70
2018-05-06T18:25:07.697Z,50.60
2018-05-06T18:27:35.904Z,52.40
2018-05-06T18:30:03.314Z,52.40
2018-05-06T18:32:30.729Z,53.10
2018-05-06T18:34:58.908Z,51.10
2018-05-06T18:37:27.119Z,50.10
2018-05-06T18:39:54.585Z,50.00
2018-05-06T18:42:22.009Z,51.80
2018-05-06T18:44:49.535Z,52.80
2018-05-06T18:47:17.688Z,52.60
2018-05-06T18:49:45.892Z,54.60
2018-05-06T18:52:13.368Z,54.00
2018-05-06T18:54:40.837Z,54.30
2018-05-06T18:57:08.244Z,55.30
2018-05-06T18:59:35.669Z,56.40
2018-05-06T19:02:03.852Z,56.20
2018-05-06T19:04:32.032Z,56.10
2018-05-06T19:07:00.208Z,55.90
2018-05-06T19:09:27.721Z,55.90
2018-05-06T19:11:55.117Z,56.60
2018-05-06T19:14:22.540Z,56.70
2018-05-06T19:16:50.719Z,57.30
2018-05-06T19:19:18.904Z,57.70
2018-05-06T19:21:47.076Z,58.20
2018-05-06T19:24:14.489Z,58.20
2018-05-06T19:26:41.903Z,57.90
2018-05-06T19:29:09.312Z,58.30
2018-05-06T19:31:37.486Z,57.60
2018-05-06T19:34:05.661Z,58.10
2018-05-06T19:36:33.840Z,58.70
2018-05-06T19:39:01.265Z,58.10
2018-05-06T19:41:28.676Z,58.60
2018-05-06T19:43:56.090Z,59.60
2018-05-06T19:46:23.513Z,58.80
2018-05-06T19:48:51.086Z,58.40
2018-05-06T19:51:18.433Z,58.90
2018-05-06T19:53:45.849Z,59.50
2018-05-06T19:56:14.029Z,59.30
2018-05-06T19:58:42.237Z,60.80
2018-05-06T20:01:09.653Z,60.60
2018-05-06T20:03:37.061Z,59.40
2018-05-06T20:06:05.262Z,59.60
2018-05-06T20:08:33.427Z,60.80
2018-05-06T20:11:01.609Z,60.90
2018-05-06T20:13:29.821Z,61.10
2018-05-06T20:15:57.236Z,60.90
2018-05-06T20:18:24.640Z,62.20
2018-05-06T20:20:52.829Z,61.40
2018-05-06T20:23:21.000Z,61.80
2018-05-06T20:25:48.420Z,61.80
2018-05-06T20:28:15.829Z,60.30
2018-05-06T20:30:43.252Z,61.50
2018-05-06T20:33:10.708Z,63.10
2018-05-06T20:35:38.122Z,62.20
2018-05-06T20:38:05.553Z,61.90
2018-05-06T20:40:32.964Z,62.90
2018-05-06T20:43:00.376Z,62.80
2018-05-06T20:45:28.553Z,62.30
2018-05-06T20:47:56.761Z,62.70
2018-05-06T20:50:24.172Z,62.70
2018-05-06T20:52:51.696Z,63.20
2018-05-06T20:55:19.131Z,63.40
2018-05-06T20:57:46.521Z,63.50
2018-05-06T21:00:14.696Z,62.60
2018-05-06T21:02:42.881Z,63.80
2018-05-06T21:05:10.329Z,63.60
2018-05-06T21:07:37.709Z,63.40
2018-05-06T21:10:05.122Z,63.30
2018-05-06T21:12:32.528Z,62.60
2018-05-06T21:14:59.948Z,63.20
2018-05-06T21:17:28.144Z,64.60
2018-05-06T21:19:55.548Z,64.50
2018-05-06T21:22:22.964Z,64.80
2018-05-06T21:24:51.137Z,64.70
2018-05-06T21:27:18.548Z,64.70
2018-05-06T21:29:46.023Z,65.40
2018-05-06T21:32:13.376Z,66.10
2018-05-06T21:34:40.797Z,66.60
2018-05-06T21:37:08.292Z,66.40
2018-05-06T21:39:36.388Z,66.60
2018-05-06T21:42:04.556Z,66.50
2018-05-06T21:44:31.974Z,66.50
2018-05-06T21:46:59.420Z,66.90
2018-05-06T21:49:26.837Z,66.70
2018-05-06T21:51:54.260Z,69.00
2018-05-06T21:54:21.694Z,69.10
2018-05-06T21:56:49.100Z,69.40
2018-05-06T21:59:16.573Z,69.70
2018-05-06T22:01:43.984Z,69.40
2018-05-06T22:04:11.410Z,69.80
2018-05-06T22:06:39.584Z,70.10
2018-05-06T22:09:07.760Z,70.30
2018-05-06T22:11:35.941Z,70.10
2018-05-06T22:14:03.444Z,70.10
2018-05-06T22:16:30.853Z,69.90
2018-05-06T22:18:58.273Z,71.10
2018-05-06T22:21:25.680Z,71.60
2018-05-06T22:23:53.089Z,71.20
2018-05-06T22:26:20.594Z,71.80
2018-05-06T22:28:48.009Z,72.00
2018-05-06T22:31:15.419Z,72.60
2018-05-06T22:33:43.593Z,71.60
2018-05-06T22:36:11.781Z,72.70
2018-05-06T22:38:39.961Z,72.20
2018-05-06T22:41:07.376Z,72.10
2018-05-06T22:43:34.792Z,73.20
2018-05-06T22:46:02.209Z,73.80
2018-05-06T22:48:29.617Z,73.70
2018-05-06T22:50:57.054Z,73.80
2018-05-06T22:53:24.504Z,74.40
2018-05-06T22:55:51.916Z,74.10
2018-05-06T22:58:19.328Z,75.40
2018-05-06T23:00:47.518Z,76.00
2018-05-06T23:03:15.712Z,77.10
2018-05-06T23:05:43.190Z,76.40
2018-05-06T23:08:10.652Z,76.30
2018-05-06T23:10:38.068Z,76.10
2018-05-06T23:13:05.485Z,77.00
2018-05-06T23:15:33.656Z,77.40
2018-05-06T23:18:01.837Z,77.10
2018-05-06T23:20:29.342Z,77.10
2018-05-06T23:22:56.761Z,77.10
2018-05-06T23:25:24.177Z,76.30
2018-05-06T23:27:51.653Z,77.20
2018-05-06T23:30:19.116Z,77.80
2018-05-06T23:32:47.009Z,77.90
2018-05-06T23:35:14.404Z,79.00
2018-05-06T23:37:41.821Z,78.40
2018-05-06T23:40:10.001Z,77.80
2018-05-06T23:42:38.193Z,77.70
2018-05-06T23:45:06.365Z,77.90
2018-05-06T23:47:33.785Z,77.30
2018-05-06T23:50:01.208Z,79.50
2018-05-06T23:52:28.661Z,78.90
2018-05-06T23:54:56.028Z,79.50
2018-05-06T23:57:23.445Z,79.80
2018-05-06T23:59:50.861Z,79.80
